Time;durP1;ratioP1;P1;durP2;ratioP2;P2;SDS_P1;SDS_P2;PMS_P1;PMS_P2;Temp;Humidity;BMP_temperature;BMP_pressure;BME280_temperature;BME280_humidity;BME280_pressure;Samples;Min_cycle;Max_cycle;Signal;HPM_P1;HPM_P2
2021/07/12 00:00:34;143559.00;0.48;248.71;0.00;0.00;0.62;;;;;21.70;1.00;;;;;;2256177;61;1032;-88
2021/07/12 00:03:05;0.00;0.00;0.62;0.00;0.00;0.62;;;;;21.90;1.00;;;;;;2257241;61;1350;-89
2021/07/12 00:05:32;19662.00;0.07;34.68;0.00;0.00;0.62;;;;;21.90;1.00;;;;;;2254319;61;1031;-89
2021/07/12 00:07:59;29008.00;0.10;50.87;0.00;0.00;0.62;;;;;21.70;1.00;;;;;;2256077;61;1928;-90
2021/07/12 00:10:28;49139.00;0.16;85.70;0.00;0.00;0.62;;;;;21.80;1.00;;;;;;2247989;61;987;-87
2021/07/12 00:12:56;0.00;0.00;0.62;0.00;0.00;0.62;;;;;21.80;1.00;;;;;;2248174;61;1346;-89
2021/07/12 00:15:26;69473.00;0.23;120.85;0.00;0.00;0.62;;;;;21.40;1.00;;;;;;2248198;61;983;-87
2021/07/12 00:17:53;53054.00;0.18;92.47;0.00;0.00;0.62;;;;;21.50;1.00;;;;;;2248170;61;1019;-88
2021/07/12 00:20:24;56779.00;0.19;98.91;0.00;0.00;0.62;;;;;21.40;1.00;;;;;;2244175;61;999;-88
2021/07/12 00:22:54;310712.00;1.04;536.33;71409.00;0.24;124.20;;;;;21.20;1.00;;;;;;2244178;61;1426;-89
2021/07/12 00:25:22;81120.00;0.27;140.97;0.00;0.00;0.62;;;;;21.20;1.00;;;;;;2237822;61;955;-88
2021/07/12 00:27:49;386982.00;1.29;667.43;86675.00;0.29;150.57;;;;;21.10;1.00;;;;;;2246645;61;1919;-89
2021/07/12 00:30:20;51181.00;0.17;89.23;0.00;0.00;0.62;;;;;20.70;1.00;;;;;;2248117;61;1056;-88
2021/07/12 00:32:48;122041.00;0.41;211.60;0.00;0.00;0.62;;;;;20.50;1.00;;;;;;2248034;61;1390;-88
2021/07/12 00:35:16;159956.00;0.53;276.96;0.00;0.00;0.62;;;;;20.70;1.00;;;;;;2248119;61;1001;-90
2021/07/12 00:37:45;113465.00;0.38;196.81;0.00;0.00;0.62;;;;;20.70;1.00;;;;;;2248112;61;1043;-88
2021/07/12 00:40:15;139862.00;0.47;242.33;0.00;0.00;0.62;;;;;20.70;1.00;;;;;;2248179;61;964;-89
2021/07/12 00:42:43;187719.00;0.63;324.78;20499.00;0.07;36.13;;;;;20.80;1.00;;;;;;2243031;61;1315;-88
2021/07/12 00:45:14;86420.00;0.29;150.13;0.00;0.00;0.62;;;;;21.00;1.00;;;;;;2256074;61;1076;-89
2021/07/12 00:47:41;39642.00;0.13;69.27;0.00;0.00;0.62;;;;;21.00;1.00;;;;;;2257481;61;1158;-90
2021/07/12 00:50:11;341360.00;1.14;589.01;0.00;0.00;0.62;;;;;21.00;1.00;;;;;;2255958;61;1936;-89
2021/07/12 00:52:38;93433.00;0.31;162.24;0.00;0.00;0.62;;;;;21.00;1.00;;;;;;2256033;61;1427;-89
2021/07/12 00:55:17;231302.00;0.77;399.79;0.00;0.00;0.62;;;;;20.80;1.00;;;;;;2256138;61;1013;-89
2021/07/12 00:57:45;242965.00;0.81;419.85;0.00;0.00;0.62;;;;;21.00;1.00;;;;;;2256095;61;1016;-88
2021/07/12 01:00:14;137876.00;0.46;238.91;21568.00;0.07;37.99;;;;;21.10;1.00;;;;;;2244000;62;1210;-88
2021/07/12 01:02:42;37248.00;0.12;65.13;0.00;0.00;0.62;;;;;21.20;1.00;;;;;;2244095;62;1425;-88
2021/07/12 01:05:13;154688.00;0.52;267.89;0.00;0.00;0.62;;;;;21.20;1.00;;;;;;2234268;62;1006;-88
2021/07/12 01:07:40;65779.00;0.22;114.47;0.00;0.00;0.62;;;;;21.30;1.00;;;;;;2246296;61;1020;-88
2021/07/12 01:10:10;248542.00;0.83;429.44;148.00;0.00;0.88;;;;;21.40;1.00;;;;;;2247961;61;2019;-88
2021/07/12 01:12:44;96004.00;0.32;166.67;0.00;0.00;0.62;;;;;21.30;1.00;;;;;;2243952;62;1409;-89
2021/07/12 01:15:14;199513.00;0.67;345.09;82219.00;0.27;142.87;;;;;21.40;1.00;;;;;;2232206;62;951;-88
2021/07/12 01:17:51;26609.00;0.09;46.71;0.00;0.00;0.62;;;;;21.40;1.00;;;;;;2234189;62;1016;-87
2021/07/12 01:21:02;46737.00;0.16;81.54;0.00;0.00;0.62;;;;;21.30;1.00;;;;;;2240061;62;1017;-89
2021/07/12 01:23:56;60092.00;0.20;104.64;0.00;0.00;0.62;;;;;21.00;1.00;;;;;;2236889;62;1404;-88
2021/07/12 01:27:01;0.00;0.00;0.62;0.00;0.00;0.62;;;;;20.60;1.00;;;;;;2236875;62;1052;-88
2021/07/12 01:29:42;133039.00;0.44;230.57;0.00;0.00;0.62;;;;;20.40;1.00;;;;;;2232905;62;2014;-88
2021/07/12 01:32:45;221703.00;0.74;383.27;88004.00;0.29;152.86;;;;;20.70;1.00;;;;;;2241554;61;1334;-88
2021/07/12 01:35:21;114797.00;0.38;199.11;0.00;0.00;0.62;;;;;20.90;1.00;;;;;;2256689;61;1055;-88
2021/07/12 01:38:17;154547.00;0.52;267.64;0.00;0.00;0.62;;;;;20.70;1.00;;;;;;2248687;61;966;-88
2021/07/12 01:40:50;173007.00;0.58;299.45;70767.00;0.24;123.09;;;;;20.60;1.00;;;;;;2240619;62;992;-87
2021/07/12 01:43:27;84821.00;0.28;147.36;0.00;0.00;0.62;;;;;20.60;1.00;;;;;;2232837;62;1364;-88
2021/07/12 01:46:03;260632.00;0.87;450.24;107956.00;0.36;187.30;;;;;20.60;1.00;;;;;;2232910;62;1015;-89
2021/07/12 01:48:39;324584.00;1.08;560.18;15867.00;0.05;28.11;;;;;20.70;1.00;;;;;;2232842;62;2015;-89
2021/07/12 01:51:10;0.00;0.00;0.62;0.00;0.00;0.62;;;;;21.00;1.00;;;;;;2229543;62;1433;-90
2021/07/12 01:53:48;93542.00;0.31;162.42;0.00;0.00;0.62;;;;;21.20;1.00;;;;;;2226429;62;1063;-89
2021/07/12 01:56:22;130242.00;0.43;225.75;0.00;0.00;0.62;;;;;21.20;1.00;;;;;;2238012;62;1059;-89
2021/07/12 01:58:58;281553.00;0.94;486.21;3295.00;0.01;6.33;;;;;20.90;1.00;;;;;;2238730;62;962;-89
2021/07/12 02:01:27;313501.00;1.05;541.13;0.00;0.00;0.62;;;;;21.10;1.00;;;;;;2234194;62;1454;-88
2021/07/12 02:03:58;75284.00;0.25;130.89;0.00;0.00;0.62;;;;;21.00;1.00;;;;;;2234123;62;1006;-88
2021/07/12 02:06:26;131375.00;0.44;227.70;0.00;0.00;0.62;;;;;20.70;1.00;;;;;;2240649;62;1117;-89
2021/07/12 02:08:55;136939.00;0.46;237.29;0.00;0.00;0.62;;;;;20.70;1.00;;;;;;2247731;61;1997;-90
2021/07/12 02:11:23;138610.00;0.46;240.17;0.00;0.00;0.62;;;;;20.80;1.00;;;;;;2241973;61;1432;-87
2021/07/12 02:13:51;222493.00;0.74;384.63;0.00;0.00;0.62;;;;;21.00;1.00;;;;;;2248491;61;1036;-89
2021/07/12 02:16:21;142749.00;0.48;247.31;0.00;0.00;0.62;;;;;21.20;1.00;;;;;;2251526;61;1002;-88
2021/07/12 02:18:50;83602.00;0.28;145.26;0.00;0.00;0.62;;;;;21.20;1.00;;;;;;2260488;61;1006;-88
2021/07/12 02:21:21;356058.00;1.19;614.27;52025.00;0.17;90.69;;;;;20.90;1.00;;;;;;2260499;61;1417;-89
2021/07/12 02:23:51;142279.00;0.47;246.50;0.00;0.00;0.62;;;;;20.80;1.00;;;;;;2260524;61;941;-89
2021/07/12 02:26:22;363449.00;1.21;626.98;126624.00;0.42;219.51;;;;;20.80;1.00;;;;;;2253366;61;986;-89
2021/07/12 02:28:51;159164.00;0.53;275.60;0.00;0.00;0.62;;;;;20.90;1.00;;;;;;2256460;61;2003;-89
2021/07/12 02:31:19;79056.00;0.26;137.41;0.00;0.00;0.62;;;;;20.80;1.00;;;;;;2256421;61;1411;-90
2021/07/12 02:33:48;158142.00;0.53;273.84;0.00;0.00;0.62;;;;;20.50;1.00;;;;;;2256187;61;994;-89
2021/07/12 02:36:16;203155.00;0.68;351.35;0.00;0.00;0.62;;;;;20.50;1.00;;;;;;2256457;61;966;-88
2021/07/12 02:38:45;99096.00;0.33;172.01;0.00;0.00;0.62;;;;;20.50;1.00;;;;;;2256354;61;1061;-89
2021/07/12 02:41:14;0.00;0.00;0.62;0.00;0.00;0.62;;;;;20.70;1.00;;;;;;2256418;61;1404;-88
2021/07/12 02:43:42;258324.00;0.86;446.27;18394.00;0.06;32.49;;;;;20.80;1.00;;;;;;2257224;61;954;-88
2021/07/12 02:46:12;90229.00;0.30;156.70;0.00;0.00;0.62;;;;;20.30;1.00;;;;;;2260414;61;1010;-88
2021/07/12 02:48:40;171186.00;0.57;296.31;0.00;0.00;0.62;;;;;20.20;1.00;;;;;;2260397;61;1910;-90
2021/07/12 02:51:12;429095.00;1.43;739.83;55620.00;0.19;96.90;;;;;20.20;1.00;;;;;;2256986;61;1333;-87
2021/07/12 02:53:46;178114.00;0.59;308.24;0.00;0.00;0.62;;;;;19.70;1.00;;;;;;2252356;61;939;-87
2021/07/12 02:56:14;67421.00;0.22;117.30;0.00;0.00;0.62;;;;;19.80;1.00;;;;;;2242516;61;1003;-88
2021/07/12 02:58:41;209845.00;0.70;362.87;0.00;0.00;0.62;;;;;19.80;1.00;;;;;;2244384;62;1010;-87
2021/07/12 03:01:08;56622.00;0.19;98.64;0.00;0.00;0.62;;;;;19.90;1.00;;;;;;2241325;62;1455;-88
2021/07/12 03:03:35;81589.00;0.27;141.78;0.00;0.00;0.62;;;;;19.60;1.00;;;;;;2244471;62;1077;-87
2021/07/12 03:06:10;64995.00;0.22;113.11;0.00;0.00;0.62;;;;;19.30;1.00;;;;;;2244408;62;1044;-87
2021/07/12 03:08:43;120303.00;0.40;208.61;0.00;0.00;0.62;;;;;19.30;1.00;;;;;;2240417;62;1007;-87
2021/07/12 03:11:17;0.00;0.00;0.62;0.00;0.00;0.62;;;;;19.20;1.00;;;;;;2236621;61;1477;-88
2021/07/12 03:13:54;153052.00;0.51;265.07;21404.00;0.07;37.70;;;;;19.20;1.00;;;;;;2248987;61;974;-88
2021/07/12 03:16:21;27554.00;0.09;48.35;0.00;0.00;0.62;;;;;19.10;2.30;;;;;;2248286;61;1033;-88
2021/07/12 03:18:54;0.00;0.00;0.62;0.00;0.00;0.62;;;;;19.20;1.00;;;;;;2249656;61;968;-86
2021/07/12 03:21:24;89243.00;0.30;155.00;0.00;0.00;0.62;;;;;19.50;1.10;;;;;;2252297;61;1491;-87
2021/07/12 03:23:55;106700.00;0.36;185.14;0.00;0.00;0.62;;;;;19.70;1.40;;;;;;2248987;61;1025;-88
2021/07/12 03:26:25;156058.00;0.52;270.25;0.00;0.00;0.62;;;;;19.90;1.00;;;;;;2253815;61;1015;-88
2021/07/12 03:28:55;184873.00;0.62;319.88;70217.00;0.23;122.14;;;;;19.60;1.00;;;;;;2252227;61;2001;-88
2021/07/12 03:31:27;313159.00;1.04;540.54;36014.00;0.12;62.99;;;;;19.30;1.00;;;;;;2248883;61;1396;-89
2021/07/12 03:33:56;39334.00;0.13;68.74;0.00;0.00;0.62;;;;;19.20;1.00;;;;;;2246805;61;971;-87
2021/07/12 03:36:25;282801.00;0.94;488.35;22596.00;0.08;39.77;;;;;19.00;1.00;;;;;;2256307;61;1030;-88
2021/07/12 03:38:53;14433.00;0.05;25.63;0.00;0.00;0.62;;;;;19.10;1.00;;;;;;2256301;61;986;-86
2021/07/12 03:41:21;7814.00;0.03;14.16;0.00;0.00;0.62;;;;;19.50;1.00;;;;;;2256105;61;1497;-88
2021/07/12 03:43:49;156256.00;0.52;270.59;0.00;0.00;0.62;;;;;19.50;1.00;;;;;;2256315;61;1024;-87
2021/07/12 03:46:17;125484.00;0.42;217.54;0.00;0.00;0.62;;;;;19.20;1.00;;;;;;2251357;61;1002;-88
2021/07/12 03:48:46;134341.00;0.45;232.81;0.00;0.00;0.62;;;;;19.30;1.20;;;;;;2254380;61;1001;-88
2021/07/12 03:51:15;16690.00;0.06;29.54;0.00;0.00;0.62;;;;;19.30;1.00;;;;;;2254268;61;2002;-90
2021/07/12 03:53:42;0.00;0.00;0.62;0.00;0.00;0.62;;;;;19.40;1.00;;;;;;2264080;61;1005;-88
2021/07/12 03:56:10;0.00;0.00;0.62;0.00;0.00;0.62;;;;;19.10;1.00;;;;;;2264679;61;1047;-88
2021/07/12 03:58:37;114949.00;0.38;199.37;0.00;0.00;0.62;;;;;18.70;1.00;;;;;;2264710;61;955;-89
2021/07/12 04:01:06;84808.00;0.28;147.34;0.00;0.00;0.62;;;;;18.50;1.00;;;;;;2252159;61;1048;-89
2021/07/12 04:03:33;140797.00;0.47;243.94;0.00;0.00;0.62;;;;;18.30;1.60;;;;;;2248169;61;962;-89
2021/07/12 04:06:00;153222.00;0.51;265.36;0.00;0.00;0.62;;;;;18.30;1.00;;;;;;2238360;62;926;-88
2021/07/12 04:08:27;277794.00;0.93;479.74;67078.00;0.22;116.71;;;;;18.30;1.40;;;;;;2238237;61;1017;-88
2021/07/12 04:10:54;14254.00;0.05;25.32;0.00;0.00;0.62;;;;;18.50;1.00;;;;;;2248052;61;1941;-89
2021/07/12 04:13:21;31711.00;0.11;55.54;0.00;0.00;0.62;;;;;18.60;1.00;;;;;;2238288;61;1444;-89
2021/07/12 04:15:48;131535.00;0.44;227.98;0.00;0.00;0.62;;;;;18.80;1.00;;;;;;2241669;62;1003;-89
2021/07/12 04:18:16;133729.00;0.45;231.76;0.00;0.00;0.62;;;;;19.20;2.90;;;;;;2249087;61;1120;-90
2021/07/12 04:20:43;74.00;0.00;0.75;0.00;0.00;0.62;;;;;19.70;1.10;;;;;;2257753;61;1017;-90
2021/07/12 04:23:11;130154.00;0.43;225.59;0.00;0.00;0.62;;;;;20.00;1.00;;;;;;2268595;61;1420;-89
2021/07/12 04:25:38;44341.00;0.15;77.40;0.00;0.00;0.62;;;;;20.20;1.00;;;;;;2260041;61;1017;-90
2021/07/12 04:28:05;0.00;0.00;0.62;0.00;0.00;0.62;;;;;20.20;1.00;;;;;;2256222;61;988;-89
2021/07/12 04:30:33;55282.00;0.18;96.32;0.00;0.00;0.62;;;;;20.10;1.00;;;;;;2249505;61;1989;-90
2021/07/12 04:33:00;0.00;0.00;0.62;0.00;0.00;0.62;;;;;20.00;1.00;;;;;;2249484;61;1520;-89
2021/07/12 04:35:29;129449.00;0.43;224.38;0.00;0.00;0.62;;;;;19.90;1.00;;;;;;2256103;61;1079;-91
2021/07/12 04:37:56;37086.00;0.12;64.85;0.00;0.00;0.62;;;;;19.50;1.00;;;;;;2249407;61;959;-90
2021/07/12 04:40:23;123024.00;0.41;213.30;0.00;0.00;0.62;;;;;19.70;1.10;;;;;;2256098;61;1045;-90
2021/07/12 05:47:17;0.00;0.00;0.62;0.00;0.00;0.62;;;;;21.50;1.00;;;;;;2503557;40;3598;31
2021/07/12 06:56:41;102049.00;0.34;177.11;0.00;0.00;0.62;;;;;31.10;1.00;;;;;;2270802;61;901;-86
2021/07/12 07:04:04;325618.00;1.09;561.95;0.00;0.00;0.62;;;;;30.60;1.00;;;;;;2467182;40;3572;31
2021/07/12 07:48:26;0.00;0.00;0.62;0.00;0.00;0.62;;;;;28.60;1.00;;;;;;2501633;40;3477;31
2021/07/12 08:32:47;0.00;0.00;0.62;0.00;0.00;0.62;;;;;32.10;1.00;;;;;;2467154;40;3685;31
2021/07/12 09:22:07;0.00;0.00;0.62;0.00;0.00;0.62;;;;;32.80;1.00;;;;;;2269621;61;1395;-84
2021/07/12 09:31:59;0.00;0.00;0.62;0.00;0.00;0.62;;;;;31.60;1.00;;;;;;2269892;61;1399;-84
2021/07/12 09:46:50;31213.00;0.10;54.68;0.00;0.00;0.62;;;;;31.10;1.00;;;;;;2274656;61;1411;-83
2021/07/12 09:54:21;195676.00;0.65;338.48;60366.00;0.20;105.11;;;;;30.70;1.00;;;;;;2270628;61;1397;-83
2021/07/12 09:56:49;0.00;0.00;0.62;0.00;0.00;0.62;;;;;30.60;1.00;;;;;;2269084;61;1042;-84
2021/07/12 09:59:17;16998.00;0.06;30.07;0.00;0.00;0.62;;;;;31.10;1.00;;;;;;2258789;61;1002;-82
2021/07/12 10:09:10;165447.00;0.55;286.42;59905.00;0.20;104.31;;;;;31.10;1.00;;;;;;2270651;61;1415;-83
2021/07/12 10:11:37;279568.00;0.93;482.79;62731.00;0.21;109.20;;;;;31.10;1.00;;;;;;2268689;61;1989;-83
2021/07/12 10:14:05;170283.00;0.57;294.75;69252.00;0.23;120.47;;;;;31.10;1.00;;;;;;2268725;61;1427;-83
2021/07/12 10:19:00;493428.00;1.64;850.51;113286.00;0.38;196.50;;;;;31.30;1.00;;;;;;2270073;61;1419;-83
2021/07/12 10:28:53;169099.00;0.56;292.71;56135.00;0.19;97.79;;;;;31.70;1.00;;;;;;2270221;61;1399;-86
2021/07/12 10:33:48;244777.00;0.82;422.97;55284.00;0.18;96.32;;;;;31.70;1.00;;;;;;2268398;61;1424;-86
2021/07/12 10:46:32;0.00;0.00;0.62;0.00;0.00;0.62;;;;;30.90;1.00;;;;;;2270873;61;936;-87
2021/07/12 10:49:03;150177.00;0.50;260.11;0.00;0.00;0.62;;;;;30.20;1.00;;;;;;2426084;40;3939;31
2021/07/12 10:51:35;141294.00;0.47;244.80;8238.00;0.03;14.90;;;;;30.50;1.00;;;;;;2261988;61;1986;-85
2021/07/12 10:54:04;0.00;0.00;0.62;0.00;0.00;0.62;;;;;30.60;1.00;;;;;;2260615;61;1338;-85
2021/07/12 11:03:58;79699.00;0.27;138.52;0.00;0.00;0.62;;;;;31.50;1.00;;;;;;2270220;61;1360;-85
2021/07/12 11:11:42;220744.00;0.74;381.62;62273.00;0.21;108.41;;;;;31.80;1.00;;;;;;2271011;61;1888;-87
2021/07/12 11:16:41;0.00;0.00;0.62;0.00;0.00;0.62;;;;;30.60;1.00;;;;;;2505767;55;3652;31
2021/07/12 11:33:59;33347.00;0.11;58.38;0.00;0.00;0.62;;;;;31.10;1.00;;;;;;2270591;61;1431;-82
2021/07/12 12:08:28;149917.00;0.50;259.66;0.00;0.00;0.62;;;;;31.10;1.00;;;;;;2270049;61;1383;-85
2021/07/12 12:23:16;0.00;0.00;0.62;0.00;0.00;0.62;;;;;31.40;1.00;;;;;;2269908;61;1436;-85
2021/07/12 12:30:42;0.00;0.00;0.62;0.00;0.00;0.62;;;;;31.40;1.00;;;;;;2269781;61;1961;-84
2021/07/12 12:35:37;0.00;0.00;0.62;0.00;0.00;0.62;;;;;31.40;1.00;;;;;;2269945;61;1391;-84
2021/07/12 12:43:11;0.00;0.00;0.62;0.00;0.00;0.62;;;;;31.40;1.00;;;;;;2271022;61;1285;-83
2021/07/12 12:48:08;0.00;0.00;0.62;0.00;0.00;0.62;;;;;31.70;1.00;;;;;;2270891;61;1308;-87
2021/07/12 14:31:42;553698.00;1.85;954.33;91895.00;0.31;159.58;;;;;32.00;1.00;;;;;;2499216;55;3655;31
2021/07/12 14:58:49;112881.00;0.38;195.80;0.00;0.00;0.62;;;;;31.60;1.00;;;;;;2472137;40;3572;31
2021/07/12 15:11:10;77913.00;0.26;135.43;0.00;0.00;0.62;;;;;31.10;1.00;;;;;;2500827;55;3669;31
2021/07/12 17:09:27;0.00;0.00;0.62;0.00;0.00;0.62;;;;;29.30;1.00;;;;;;2499422;41;3470;31
2021/07/12 18:01:22;116485.00;0.39;202.02;0.00;0.00;0.62;;;;;29.80;1.00;;;;;;2504212;55;3666;31
2021/07/12 18:13:45;63206.00;0.21;110.02;0.00;0.00;0.62;;;;;30.60;1.00;;;;;;2494458;55;4450;31
2021/07/12 18:33:35;0.00;0.00;0.62;0.00;0.00;0.62;;;;;30.70;1.00;;;;;;2499338;55;3630;31
2021/07/12 19:30:18;0.00;0.00;0.62;0.00;0.00;0.62;;;;;29.10;1.00;;;;;;2503407;55;4514;31
2021/07/12 19:50:03;238242.00;0.79;411.73;107417.00;0.36;186.37;;;;;28.60;1.00;;;;;;2270527;61;1272;-87
2021/07/12 19:57:26;0.00;0.00;0.62;0.00;0.00;0.62;;;;;27.70;1.00;;;;;;2270758;61;901;-86
2021/07/12 20:17:10;0.00;0.00;0.62;0.00;0.00;0.62;;;;;27.10;1.00;;;;;;2271078;61;991;-85
2021/07/12 20:22:08;117764.00;0.39;204.23;0.00;0.00;0.62;;;;;27.20;1.00;;;;;;2270489;61;1304;-86
2021/07/12 20:27:06;82922.00;0.28;144.08;14245.00;0.05;25.30;;;;;27.40;1.00;;;;;;2270873;61;1308;-86
2021/07/12 20:36:58;13989.00;0.05;24.86;0.00;0.00;0.62;;;;;27.60;1.00;;;;;;2271044;61;949;-87
2021/07/12 20:39:29;310689.00;1.04;536.29;27906.00;0.09;48.96;;;;;27.70;1.00;;;;;;2424690;40;3797;31
2021/07/12 21:58:35;0.00;0.00;0.62;0.00;0.00;0.62;;;;;26.10;1.00;;;;;;2426325;40;3647;31
2021/07/12 22:01:03;182393.00;0.61;315.61;0.00;0.00;0.62;;;;;26.10;1.00;;;;;;2423388;40;3938;31
